sensor_id;sensor_type;location;lat;lon;timestamp;P1;durP1;ratioP1;P2;durP2;ratioP2
54849;SDS011;47660;51.334;12.396;2022-12-07T00:01:39;2.92;;;1.67;;
54849;SDS011;47660;51.334;12.396;2022-12-07T00:04:09;3.35;;;2.28;;
54849;SDS011;47660;51.334;12.396;2022-12-07T00:06:41;4.38;;;1.52;;
54849;SDS011;47660;51.334;12.396;2022-12-07T00:09:12;1.98;;;1.17;;
54849;SDS011;47660;51.334;12.396;2022-12-07T00:11:39;2.17;;;1.15;;
54849;SDS011;47660;51.334;12.396;2022-12-07T00:14:05;3.95;;;2.80;;
54849;SDS011;47660;51.334;12.396;2022-12-07T00:16:33;3.53;;;2.00;;
54849;SDS011;47660;51.334;12.396;2022-12-07T00:18:59;3.90;;;1.83;;
54849;SDS011;47660;51.334;12.396;2022-12-07T00:21:29;4.90;;;2.45;;
54849;SDS011;47660;51.334;12.396;2022-12-07T00:23:56;3.35;;;2.20;;
54849;SDS011;47660;51.334;12.396;2022-12-07T00:28:54;7.57;;;2.17;;
54849;SDS011;47660;51.334;12.396;2022-12-07T00:31:21;6.78;;;2.35;;
54849;SDS011;47660;51.334;12.396;2022-12-07T00:33:48;5.18;;;2.78;;
54849;SDS011;47660;51.334;12.396;2022-12-07T00:36:16;5.05;;;2.42;;
54849;SDS011;47660;51.334;12.396;2022-12-07T00:38:43;4.90;;;3.30;;
54849;SDS011;47660;51.334;12.396;2022-12-07T00:41:16;4.88;;;2.13;;
54849;SDS011;47660;51.334;12.396;2022-12-07T00:43:44;3.10;;;1.65;;
54849;SDS011;47660;51.334;12.396;2022-12-07T00:46:10;1.92;;;1.83;;
54849;SDS011;47660;51.334;12.396;2022-12-07T00:48:36;3.20;;;1.98;;
54849;SDS011;47660;51.334;12.396;2022-12-07T00:51:03;7.80;;;3.92;;
54849;SDS011;47660;51.334;12.396;2022-12-07T00:53:29;3.30;;;2.15;;
54849;SDS011;47660;51.334;12.396;2022-12-07T00:56:10;2.08;;;1.10;;
54849;SDS011;47660;51.334;12.396;2022-12-07T00:58:37;4.93;;;3.10;;
54849;SDS011;47660;51.334;12.396;2022-12-07T01:01:03;1.92;;;1.52;;
54849;SDS011;47660;51.334;12.396;2022-12-07T01:03:30;5.00;;;2.58;;
54849;SDS011;47660;51.334;12.396;2022-12-07T01:05:58;3.03;;;2.70;;
54849;SDS011;47660;51.334;12.396;2022-12-07T01:08:24;1.88;;;1.48;;
54849;SDS011;47660;51.334;12.396;2022-12-07T01:10:57;1.75;;;1.65;;
54849;SDS011;47660;51.334;12.396;2022-12-07T01:13:27;1.70;;;1.33;;
54849;SDS011;47660;51.334;12.396;2022-12-07T01:15:55;5.47;;;2.58;;
54849;SDS011;47660;51.334;12.396;2022-12-07T01:18:23;5.18;;;3.42;;
54849;SDS011;47660;51.334;12.396;2022-12-07T01:20:58;3.88;;;1.95;;
54849;SDS011;47660;51.334;12.396;2022-12-07T01:23:29;3.45;;;2.78;;
54849;SDS011;47660;51.334;12.396;2022-12-07T01:25:56;2.00;;;1.75;;
54849;SDS011;47660;51.334;12.396;2022-12-07T01:28:25;1.98;;;1.23;;
54849;SDS011;47660;51.334;12.396;2022-12-07T01:31:02;2.10;;;1.83;;
54849;SDS011;47660;51.334;12.396;2022-12-07T01:33:29;3.90;;;3.17;;
54849;SDS011;47660;51.334;12.396;2022-12-07T01:36:13;3.22;;;1.73;;
54849;SDS011;47660;51.334;12.396;2022-12-07T01:38:56;5.97;;;3.33;;
54849;SDS011;47660;51.334;12.396;2022-12-07T01:41:24;3.50;;;2.90;;
54849;SDS011;47660;51.334;12.396;2022-12-07T01:46:52;3.72;;;2.65;;
54849;SDS011;47660;51.334;12.396;2022-12-07T01:49:39;1.20;;;1.15;;
54849;SDS011;47660;51.334;12.396;2022-12-07T01:52:16;4.55;;;3.03;;
54849;SDS011;47660;51.334;12.396;2022-12-07T01:55:03;4.93;;;3.42;;
54849;SDS011;47660;51.334;12.396;2022-12-07T01:57:31;7.50;;;2.75;;
54849;SDS011;47660;51.334;12.396;2022-12-07T02:00:03;2.45;;;1.98;;
54849;SDS011;47660;51.334;12.396;2022-12-07T02:02:34;1.77;;;1.42;;
54849;SDS011;47660;51.334;12.396;2022-12-07T02:05:04;1.65;;;1.55;;
54849;SDS011;47660;51.334;12.396;2022-12-07T02:07:31;4.43;;;3.35;;
54849;SDS011;47660;51.334;12.396;2022-12-07T02:10:15;5.30;;;2.95;;
54849;SDS011;47660;51.334;12.396;2022-12-07T02:12:48;2.00;;;1.85;;
54849;SDS011;47660;51.334;12.396;2022-12-07T02:15:19;3.13;;;1.77;;
54849;SDS011;47660;51.334;12.396;2022-12-07T02:17:49;5.25;;;3.08;;
54849;SDS011;47660;51.334;12.396;2022-12-07T02:20:36;3.03;;;1.88;;
54849;SDS011;47660;51.334;12.396;2022-12-07T02:31:44;3.75;;;2.55;;
54849;SDS011;47660;51.334;12.396;2022-12-07T02:37:47;5.18;;;2.00;;
54849;SDS011;47660;51.334;12.396;2022-12-07T02:43:02;6.00;;;3.63;;
54849;SDS011;47660;51.334;12.396;2022-12-07T02:45:34;4.97;;;2.83;;
54849;SDS011;47660;51.334;12.396;2022-12-07T02:48:04;2.13;;;0.93;;
54849;SDS011;47660;51.334;12.396;2022-12-07T02:50:31;1.13;;;1.02;;
54849;SDS011;47660;51.334;12.396;2022-12-07T02:52:59;3.67;;;2.75;;
54849;SDS011;47660;51.334;12.396;2022-12-07T02:55:29;3.25;;;2.35;;
54849;SDS011;47660;51.334;12.396;2022-12-07T03:00:43;7.40;;;3.47;;
54849;SDS011;47660;51.334;12.396;2022-12-07T03:03:17;2.60;;;2.05;;
54849;SDS011;47660;51.334;12.396;2022-12-07T03:05:46;2.50;;;2.30;;
54849;SDS011;47660;51.334;12.396;2022-12-07T03:11:16;1.60;;;1.50;;
54849;SDS011;47660;51.334;12.396;2022-12-07T03:14:02;4.32;;;2.38;;
54849;SDS011;47660;51.334;12.396;2022-12-07T03:16:53;2.55;;;2.35;;
54849;SDS011;47660;51.334;12.396;2022-12-07T03:19:26;3.22;;;2.08;;
54849;SDS011;47660;51.334;12.396;2022-12-07T03:24:42;3.70;;;1.27;;
54849;SDS011;47660;51.334;12.396;2022-12-07T03:27:19;2.42;;;2.10;;
54849;SDS011;47660;51.334;12.396;2022-12-07T03:30:02;5.47;;;2.72;;
54849;SDS011;47660;51.334;12.396;2022-12-07T03:35:25;2.45;;;1.83;;
54849;SDS011;47660;51.334;12.396;2022-12-07T03:43:04;1.85;;;1.20;;
54849;SDS011;47660;51.334;12.396;2022-12-07T03:45:40;1.10;;;0.82;;
54849;SDS011;47660;51.334;12.396;2022-12-07T03:48:20;1.95;;;1.40;;
54849;SDS011;47660;51.334;12.396;2022-12-07T03:51:07;1.33;;;1.00;;
54849;SDS011;47660;51.334;12.396;2022-12-07T03:53:50;2.53;;;1.30;;
54849;SDS011;47660;51.334;12.396;2022-12-07T03:56:21;2.40;;;2.25;;
54849;SDS011;47660;51.334;12.396;2022-12-07T03:58:48;2.00;;;1.50;;
54849;SDS011;47660;51.334;12.396;2022-12-07T04:01:17;2.47;;;1.58;;
54849;SDS011;47660;51.334;12.396;2022-12-07T04:03:45;0.98;;;0.77;;
54849;SDS011;47660;51.334;12.396;2022-12-07T04:06:10;4.82;;;2.67;;
54849;SDS011;47660;51.334;12.396;2022-12-07T04:08:36;1.85;;;1.00;;
54849;SDS011;47660;51.334;12.396;2022-12-07T04:11:01;1.45;;;0.80;;
54849;SDS011;47660;51.334;12.396;2022-12-07T04:13:27;5.28;;;2.85;;
54849;SDS011;47660;51.334;12.396;2022-12-07T04:15:54;13.07;;;2.17;;
54849;SDS011;47660;51.334;12.396;2022-12-07T04:18:19;1.20;;;1.15;;
54849;SDS011;47660;51.334;12.396;2022-12-07T04:23:10;1.38;;;1.15;;
54849;SDS011;47660;51.334;12.396;2022-12-07T04:25:38;1.42;;;1.30;;
54849;SDS011;47660;51.334;12.396;2022-12-07T04:28:04;1.35;;;1.25;;
54849;SDS011;47660;51.334;12.396;2022-12-07T04:30:29;1.52;;;1.33;;
54849;SDS011;47660;51.334;12.396;2022-12-07T04:32:55;6.13;;;2.90;;
54849;SDS011;47660;51.334;12.396;2022-12-07T04:35:20;4.55;;;1.48;;
54849;SDS011;47660;51.334;12.396;2022-12-07T04:37:46;4.97;;;2.13;;
54849;SDS011;47660;51.334;12.396;2022-12-07T04:40:11;1.65;;;1.25;;
54849;SDS011;47660;51.334;12.396;2022-12-07T04:42:39;1.92;;;1.42;;
54849;SDS011;47660;51.334;12.396;2022-12-07T04:45:04;2.72;;;1.85;;
54849;SDS011;47660;51.334;12.396;2022-12-07T04:47:30;1.48;;;1.15;;
54849;SDS011;47660;51.334;12.396;2022-12-07T04:49:56;2.85;;;2.15;;
54849;SDS011;47660;51.334;12.396;2022-12-07T04:54:46;2.17;;;1.77;;
54849;SDS011;47660;51.334;12.396;2022-12-07T04:59:37;3.25;;;1.35;;
54849;SDS011;47660;51.334;12.396;2022-12-07T05:02:03;1.08;;;0.85;;
54849;SDS011;47660;51.334;12.396;2022-12-07T05:04:28;1.77;;;0.85;;
54849;SDS011;47660;51.334;12.396;2022-12-07T05:06:54;3.17;;;1.60;;
54849;SDS011;47660;51.334;12.396;2022-12-07T05:09:19;4.35;;;2.05;;
54849;SDS011;47660;51.334;12.396;2022-12-07T05:16:44;3.10;;;1.17;;
54849;SDS011;47660;51.334;12.396;2022-12-07T05:19:12;0.60;;;0.60;;
54849;SDS011;47660;51.334;12.396;2022-12-07T05:21:38;4.40;;;2.75;;
54849;SDS011;47660;51.334;12.396;2022-12-07T05:24:05;2.97;;;1.60;;
54849;SDS011;47660;51.334;12.396;2022-12-07T05:26:34;3.15;;;1.65;;
54849;SDS011;47660;51.334;12.396;2022-12-07T05:29:00;3.53;;;1.90;;
54849;SDS011;47660;51.334;12.396;2022-12-07T05:31:30;4.80;;;3.25;;
54849;SDS011;47660;51.334;12.396;2022-12-07T05:34:00;2.05;;;1.55;;
54849;SDS011;47660;51.334;12.396;2022-12-07T05:36:26;2.90;;;2.17;;
54849;SDS011;47660;51.334;12.396;2022-12-07T05:38:53;4.03;;;1.90;;
54849;SDS011;47660;51.334;12.396;2022-12-07T05:41:19;2.90;;;2.63;;
54849;SDS011;47660;51.334;12.396;2022-12-07T05:44:03;2.35;;;1.65;;
54849;SDS011;47660;51.334;12.396;2022-12-07T05:46:30;3.50;;;2.97;;
54849;SDS011;47660;51.334;12.396;2022-12-07T05:48:57;4.10;;;2.60;;
54849;SDS011;47660;51.334;12.396;2022-12-07T05:51:25;2.10;;;1.58;;
54849;SDS011;47660;51.334;12.396;2022-12-07T05:53:51;2.50;;;1.90;;
54849;SDS011;47660;51.334;12.396;2022-12-07T05:56:19;3.78;;;2.60;;
54849;SDS011;47660;51.334;12.396;2022-12-07T05:58:45;4.40;;;2.20;;
54849;SDS011;47660;51.334;12.396;2022-12-07T06:01:29;2.00;;;1.00;;
54849;SDS011;47660;51.334;12.396;2022-12-07T06:03:54;6.45;;;3.30;;
54849;SDS011;47660;51.334;12.396;2022-12-07T06:06:20;5.55;;;2.38;;
54849;SDS011;47660;51.334;12.396;2022-12-07T06:08:48;3.10;;;1.92;;
54849;SDS011;47660;51.334;12.396;2022-12-07T06:11:13;4.60;;;2.47;;
54849;SDS011;47660;51.334;12.396;2022-12-07T06:13:57;6.22;;;2.55;;
54849;SDS011;47660;51.334;12.396;2022-12-07T06:16:23;4.30;;;3.03;;
54849;SDS011;47660;51.334;12.396;2022-12-07T06:18:48;6.90;;;3.38;;
54849;SDS011;47660;51.334;12.396;2022-12-07T06:21:14;6.88;;;2.97;;
54849;SDS011;47660;51.334;12.396;2022-12-07T06:23:39;2.85;;;2.65;;
54849;SDS011;47660;51.334;12.396;2022-12-07T06:26:04;6.90;;;2.65;;
54849;SDS011;47660;51.334;12.396;2022-12-07T06:28:30;2.03;;;1.77;;
54849;SDS011;47660;51.334;12.396;2022-12-07T06:31:01;5.30;;;2.65;;
54849;SDS011;47660;51.334;12.396;2022-12-07T06:33:27;1.50;;;1.30;;
54849;SDS011;47660;51.334;12.396;2022-12-07T06:35:53;3.50;;;2.80;;
54849;SDS011;47660;51.334;12.396;2022-12-07T06:38:19;2.20;;;1.77;;
54849;SDS011;47660;51.334;12.396;2022-12-07T06:40:44;2.38;;;1.63;;
54849;SDS011;47660;51.334;12.396;2022-12-07T06:43:10;4.43;;;3.22;;
54849;SDS011;47660;51.334;12.396;2022-12-07T06:48:00;6.97;;;2.03;;
54849;SDS011;47660;51.334;12.396;2022-12-07T06:50:26;5.10;;;2.85;;
54849;SDS011;47660;51.334;12.396;2022-12-07T06:55:17;6.00;;;3.42;;
54849;SDS011;47660;51.334;12.396;2022-12-07T06:57:43;4.22;;;2.28;;
54849;SDS011;47660;51.334;12.396;2022-12-07T07:00:11;5.15;;;3.08;;
54849;SDS011;47660;51.334;12.396;2022-12-07T07:02:37;4.35;;;3.25;;
54849;SDS011;47660;51.334;12.396;2022-12-07T07:05:02;6.07;;;3.97;;
54849;SDS011;47660;51.334;12.396;2022-12-07T07:09:53;2.17;;;1.57;;
54849;SDS011;47660;51.334;12.396;2022-12-07T07:12:21;2.90;;;2.03;;
54849;SDS011;47660;51.334;12.396;2022-12-07T07:14:47;9.35;;;3.60;;
54849;SDS011;47660;51.334;12.396;2022-12-07T07:17:14;8.32;;;4.20;;
54849;SDS011;47660;51.334;12.396;2022-12-07T07:19:40;0.95;;;0.73;;
54849;SDS011;47660;51.334;12.396;2022-12-07T07:24:31;4.15;;;2.38;;
54849;SDS011;47660;51.334;12.396;2022-12-07T07:26:58;3.45;;;2.45;;
54849;SDS011;47660;51.334;12.396;2022-12-07T07:29:24;4.07;;;2.38;;
54849;SDS011;47660;51.334;12.396;2022-12-07T07:31:52;2.25;;;1.63;;
54849;SDS011;47660;51.334;12.396;2022-12-07T07:34:17;3.75;;;2.35;;
54849;SDS011;47660;51.334;12.396;2022-12-07T07:36:43;9.43;;;4.07;;
54849;SDS011;47660;51.334;12.396;2022-12-07T07:39:11;4.80;;;1.55;;
54849;SDS011;47660;51.334;12.396;2022-12-07T07:41:40;7.30;;;2.75;;
54849;SDS011;47660;51.334;12.396;2022-12-07T07:44:07;9.57;;;4.18;;
54849;SDS011;47660;51.334;12.396;2022-12-07T07:46:34;7.60;;;3.03;;
54849;SDS011;47660;51.334;12.396;2022-12-07T07:49:00;5.53;;;3.30;;
54849;SDS011;47660;51.334;12.396;2022-12-07T07:51:25;4.25;;;2.50;;
54849;SDS011;47660;51.334;12.396;2022-12-07T07:53:52;2.05;;;1.25;;
54849;SDS011;47660;51.334;12.396;2022-12-07T07:56:17;5.53;;;2.67;;
54849;SDS011;47660;51.334;12.396;2022-12-07T07:58:42;1.65;;;1.52;;
54849;SDS011;47660;51.334;12.396;2022-12-07T08:01:13;3.47;;;1.85;;
54849;SDS011;47660;51.334;12.396;2022-12-07T08:03:39;2.85;;;2.05;;
54849;SDS011;47660;51.334;12.396;2022-12-07T08:06:05;5.47;;;2.20;;
54849;SDS011;47660;51.334;12.396;2022-12-07T08:08:31;7.18;;;3.28;;
54849;SDS011;47660;51.334;12.396;2022-12-07T08:10:57;6.30;;;3.65;;
54849;SDS011;47660;51.334;12.396;2022-12-07T08:13:25;4.82;;;3.55;;
54849;SDS011;47660;51.334;12.396;2022-12-07T08:15:51;6.20;;;3.35;;
54849;SDS011;47660;51.334;12.396;2022-12-07T08:18:16;7.30;;;3.22;;
54849;SDS011;47660;51.334;12.396;2022-12-07T08:20:42;4.47;;;3.25;;
54849;SDS011;47660;51.334;12.396;2022-12-07T08:23:08;6.35;;;3.63;;
54849;SDS011;47660;51.334;12.396;2022-12-07T08:25:35;4.60;;;3.58;;
54849;SDS011;47660;51.334;12.396;2022-12-07T08:28:00;1.52;;;1.40;;
54849;SDS011;47660;51.334;12.396;2022-12-07T08:32:53;4.27;;;3.20;;
54849;SDS011;47660;51.334;12.396;2022-12-07T08:35:18;5.10;;;2.67;;
54849;SDS011;47660;51.334;12.396;2022-12-07T08:37:46;5.80;;;3.30;;
54849;SDS011;47660;51.334;12.396;2022-12-07T08:40:11;3.05;;;1.92;;
54849;SDS011;47660;51.334;12.396;2022-12-07T08:42:44;7.78;;;3.55;;
54849;SDS011;47660;51.334;12.396;2022-12-07T08:45:14;3.95;;;2.70;;
54849;SDS011;47660;51.334;12.396;2022-12-07T08:47:43;5.70;;;4.07;;
54849;SDS011;47660;51.334;12.396;2022-12-07T08:50:13;3.45;;;2.55;;
54849;SDS011;47660;51.334;12.396;2022-12-07T08:52:42;0.82;;;0.80;;
54849;SDS011;47660;51.334;12.396;2022-12-07T08:55:10;3.00;;;1.73;;
54849;SDS011;47660;51.334;12.396;2022-12-07T08:57:41;5.38;;;2.88;;
54849;SDS011;47660;51.334;12.396;2022-12-07T09:00:07;3.33;;;2.20;;
54849;SDS011;47660;51.334;12.396;2022-12-07T09:02:34;2.53;;;1.52;;
54849;SDS011;47660;51.334;12.396;2022-12-07T09:04:59;6.40;;;3.25;;
54849;SDS011;47660;51.334;12.396;2022-12-07T09:07:25;6.82;;;2.58;;
54849;SDS011;47660;51.334;12.396;2022-12-07T09:09:55;4.30;;;1.92;;
54849;SDS011;47660;51.334;12.396;2022-12-07T09:12:23;3.47;;;2.53;;
54849;SDS011;47660;51.334;12.396;2022-12-07T09:14:48;5.05;;;2.92;;
54849;SDS011;47660;51.334;12.396;2022-12-07T09:17:14;4.68;;;1.98;;
54849;SDS011;47660;51.334;12.396;2022-12-07T09:19:39;6.28;;;2.67;;
54849;SDS011;47660;51.334;12.396;2022-12-07T09:22:06;9.38;;;3.20;;
54849;SDS011;47660;51.334;12.396;2022-12-07T09:24:32;7.65;;;2.13;;
54849;SDS011;47660;51.334;12.396;2022-12-07T09:26:57;5.53;;;2.72;;
54849;SDS011;47660;51.334;12.396;2022-12-07T09:29:23;2.78;;;2.00;;
54849;SDS011;47660;51.334;12.396;2022-12-07T09:31:50;4.18;;;2.85;;
54849;SDS011;47660;51.334;12.396;2022-12-07T09:34:16;7.50;;;2.92;;
54849;SDS011;47660;51.334;12.396;2022-12-07T09:36:41;8.35;;;2.00;;
54849;SDS011;47660;51.334;12.396;2022-12-07T09:39:07;3.28;;;2.15;;
54849;SDS011;47660;51.334;12.396;2022-12-07T09:41:33;4.40;;;2.70;;
54849;SDS011;47660;51.334;12.396;2022-12-07T09:44:05;1.25;;;1.13;;
54849;SDS011;47660;51.334;12.396;2022-12-07T09:46:39;3.58;;;2.00;;
54849;SDS011;47660;51.334;12.396;2022-12-07T09:49:10;4.65;;;2.70;;
54849;SDS011;47660;51.334;12.396;2022-12-07T09:51:39;8.45;;;2.72;;
54849;SDS011;47660;51.334;12.396;2022-12-07T09:54:05;3.88;;;1.48;;
54849;SDS011;47660;51.334;12.396;2022-12-07T09:56:33;4.63;;;3.08;;
54849;SDS011;47660;51.334;12.396;2022-12-07T09:58:59;2.65;;;2.22;;
54849;SDS011;47660;51.334;12.396;2022-12-07T10:01:27;5.75;;;3.20;;
54849;SDS011;47660;51.334;12.396;2022-12-07T10:03:56;4.40;;;2.83;;
54849;SDS011;47660;51.334;12.396;2022-12-07T10:06:30;3.70;;;2.25;;
54849;SDS011;47660;51.334;12.396;2022-12-07T10:08:58;5.13;;;2.55;;
54849;SDS011;47660;51.334;12.396;2022-12-07T10:11:23;7.32;;;2.22;;
54849;SDS011;47660;51.334;12.396;2022-12-07T10:13:51;2.92;;;2.20;;
54849;SDS011;47660;51.334;12.396;2022-12-07T10:18:50;5.22;;;2.78;;
54849;SDS011;47660;51.334;12.396;2022-12-07T10:24:02;6.88;;;3.58;;
54849;SDS011;47660;51.334;12.396;2022-12-07T10:26:32;3.08;;;2.25;;
54849;SDS011;47660;51.334;12.396;2022-12-07T10:29:20;3.33;;;2.22;;
54849;SDS011;47660;51.334;12.396;2022-12-07T10:32:03;6.13;;;2.30;;
54849;SDS011;47660;51.334;12.396;2022-12-07T10:34:36;4.90;;;3.50;;
54849;SDS011;47660;51.334;12.396;2022-12-07T10:37:23;3.72;;;2.15;;
54849;SDS011;47660;51.334;12.396;2022-12-07T10:39:53;4.53;;;2.40;;
54849;SDS011;47660;51.334;12.396;2022-12-07T10:42:24;7.07;;;3.13;;
54849;SDS011;47660;51.334;12.396;2022-12-07T10:47:51;2.80;;;1.95;;
54849;SDS011;47660;51.334;12.396;2022-12-07T10:56:16;1.85;;;1.23;;
54849;SDS011;47660;51.334;12.396;2022-12-07T11:09:53;7.15;;;2.10;;
54849;SDS011;47660;51.334;12.396;2022-12-07T11:20:37;1.15;;;1.00;;
54849;SDS011;47660;51.334;12.396;2022-12-07T11:37:28;1.42;;;0.93;;
54849;SDS011;47660;51.334;12.396;2022-12-07T11:40:02;1.55;;;1.42;;
54849;SDS011;47660;51.334;12.396;2022-12-07T11:42:33;3.47;;;2.17;;
54849;SDS011;47660;51.334;12.396;2022-12-07T11:48:02;4.00;;;2.72;;
54849;SDS011;47660;51.334;12.396;2022-12-07T12:06:40;1.90;;;1.52;;
54849;SDS011;47660;51.334;12.396;2022-12-07T12:11:58;5.75;;;1.52;;
54849;SDS011;47660;51.334;12.396;2022-12-07T12:23:13;3.42;;;1.88;;
54849;SDS011;47660;51.334;12.396;2022-12-07T12:25:44;2.88;;;1.40;;
54849;SDS011;47660;51.334;12.396;2022-12-07T12:28:24;2.30;;;1.20;;
54849;SDS011;47660;51.334;12.396;2022-12-07T12:31:06;1.52;;;1.35;;
54849;SDS011;47660;51.334;12.396;2022-12-07T12:33:38;1.90;;;0.90;;
54849;SDS011;47660;51.334;12.396;2022-12-07T12:38:50;2.92;;;1.33;;
54849;SDS011;47660;51.334;12.396;2022-12-07T12:46:57;1.02;;;0.80;;
54849;SDS011;47660;51.334;12.396;2022-12-07T12:54:20;1.17;;;0.77;;
54849;SDS011;47660;51.334;12.396;2022-12-07T13:10:27;0.45;;;0.45;;
54849;SDS011;47660;51.334;12.396;2022-12-07T13:15:40;0.22;;;0.22;;
54849;SDS011;47660;51.334;12.396;2022-12-07T13:20:57;3.60;;;0.93;;
54849;SDS011;47660;51.334;12.396;2022-12-07T13:26:56;0.90;;;0.70;;
54849;SDS011;47660;51.334;12.396;2022-12-07T13:31:34;0.40;;;0.40;;
54849;SDS011;47660;51.334;12.396;2022-12-07T13:34:27;1.13;;;0.90;;
54849;SDS011;47660;51.334;12.396;2022-12-07T13:36:57;0.50;;;0.50;;
54849;SDS011;47660;51.334;12.396;2022-12-07T13:39:35;1.08;;;0.47;;
54849;SDS011;47660;51.334;12.396;2022-12-07T13:42:18;2.97;;;0.65;;
54849;SDS011;47660;51.334;12.396;2022-12-07T13:44:49;0.35;;;0.35;;
54849;SDS011;47660;51.334;12.396;2022-12-07T13:49:56;0.55;;;0.55;;
54849;SDS011;47660;51.334;12.396;2022-12-07T13:52:24;0.45;;;0.45;;
54849;SDS011;47660;51.334;12.396;2022-12-07T13:57:31;0.63;;;0.63;;
54849;SDS011;47660;51.334;12.396;2022-12-07T14:00:00;1.50;;;0.82;;
54849;SDS011;47660;51.334;12.396;2022-12-07T14:02:32;0.65;;;0.65;;
54849;SDS011;47660;51.334;12.396;2022-12-07T14:05:09;3.03;;;0.70;;
54849;SDS011;47660;51.334;12.396;2022-12-07T14:10:35;0.52;;;0.52;;
54849;SDS011;47660;51.334;12.396;2022-12-07T14:13:02;0.40;;;0.30;;
54849;SDS011;47660;51.334;12.396;2022-12-07T14:15:49;4.03;;;0.93;;
54849;SDS011;47660;51.334;12.396;2022-12-07T14:18:36;2.22;;;1.00;;
54849;SDS011;47660;51.334;12.396;2022-12-07T14:21:15;0.25;;;0.25;;
54849;SDS011;47660;51.334;12.396;2022-12-07T14:23:45;0.30;;;0.30;;
54849;SDS011;47660;51.334;12.396;2022-12-07T14:26:27;0.45;;;0.45;;
54849;SDS011;47660;51.334;12.396;2022-12-07T14:28:52;0.60;;;0.60;;
54849;SDS011;47660;51.334;12.396;2022-12-07T14:31:18;0.68;;;0.60;;
54849;SDS011;47660;51.334;12.396;2022-12-07T14:33:48;0.70;;;0.70;;
54849;SDS011;47660;51.334;12.396;2022-12-07T14:36:14;0.30;;;0.30;;
54849;SDS011;47660;51.334;12.396;2022-12-07T14:38:40;0.82;;;0.63;;
54849;SDS011;47660;51.334;12.396;2022-12-07T14:41:06;1.45;;;0.40;;
54849;SDS011;47660;51.334;12.396;2022-12-07T14:43:58;0.70;;;0.38;;
54849;SDS011;47660;51.334;12.396;2022-12-07T14:46:23;1.08;;;0.85;;
54849;SDS011;47660;51.334;12.396;2022-12-07T14:48:51;0.60;;;0.60;;
54849;SDS011;47660;51.334;12.396;2022-12-07T14:51:17;0.30;;;0.30;;
54849;SDS011;47660;51.334;12.396;2022-12-07T14:53:44;4.70;;;0.80;;
54849;SDS011;47660;51.334;12.396;2022-12-07T14:56:14;0.57;;;0.47;;
54849;SDS011;47660;51.334;12.396;2022-12-07T14:58:40;2.35;;;0.85;;
54849;SDS011;47660;51.334;12.396;2022-12-07T15:01:08;0.57;;;0.30;;
54849;SDS011;47660;51.334;12.396;2022-12-07T15:03:36;0.50;;;0.50;;
54849;SDS011;47660;51.334;12.396;2022-12-07T15:06:04;2.33;;;0.57;;
54849;SDS011;47660;51.334;12.396;2022-12-07T15:08:31;0.82;;;0.82;;
54849;SDS011;47660;51.334;12.396;2022-12-07T15:10:56;0.30;;;0.30;;
54849;SDS011;47660;51.334;12.396;2022-12-07T15:13:22;0.40;;;0.40;;
54849;SDS011;47660;51.334;12.396;2022-12-07T15:16:08;0.25;;;0.25;;
54849;SDS011;47660;51.334;12.396;2022-12-07T15:18:37;2.28;;;0.77;;
54849;SDS011;47660;51.334;12.396;2022-12-07T15:21:03;1.30;;;0.43;;
54849;SDS011;47660;51.334;12.396;2022-12-07T15:23:28;0.88;;;0.47;;
54849;SDS011;47660;51.334;12.396;2022-12-07T15:25:56;0.43;;;0.35;;
54849;SDS011;47660;51.334;12.396;2022-12-07T15:28:22;1.13;;;0.98;;
54849;SDS011;47660;51.334;12.396;2022-12-07T15:30:47;0.63;;;0.52;;
54849;SDS011;47660;51.334;12.396;2022-12-07T15:33:13;0.10;;;0.10;;
54849;SDS011;47660;51.334;12.396;2022-12-07T15:35:42;0.20;;;0.20;;
54849;SDS011;47660;51.334;12.396;2022-12-07T15:38:09;1.77;;;1.05;;
54849;SDS011;47660;51.334;12.396;2022-12-07T15:40:35;0.13;;;0.13;;
54849;SDS011;47660;51.334;12.396;2022-12-07T15:43:03;0.80;;;0.47;;
54849;SDS011;47660;51.334;12.396;2022-12-07T15:45:28;1.55;;;0.63;;
54849;SDS011;47660;51.334;12.396;2022-12-07T15:47:54;0.47;;;0.30;;
54849;SDS011;47660;51.334;12.396;2022-12-07T15:50:22;1.75;;;1.20;;
54849;SDS011;47660;51.334;12.396;2022-12-07T15:52:50;0.35;;;0.35;;
54849;SDS011;47660;51.334;12.396;2022-12-07T15:55:16;11.77;;;1.33;;
54849;SDS011;47660;51.334;12.396;2022-12-07T15:57:41;0.70;;;0.50;;
54849;SDS011;47660;51.334;12.396;2022-12-07T16:00:07;0.98;;;0.98;;
54849;SDS011;47660;51.334;12.396;2022-12-07T16:02:34;2.08;;;0.50;;
54849;SDS011;47660;51.334;12.396;2022-12-07T16:04:59;6.03;;;1.17;;
54849;SDS011;47660;51.334;12.396;2022-12-07T16:07:24;2.67;;;0.63;;
54849;SDS011;47660;51.334;12.396;2022-12-07T16:09:50;4.65;;;1.45;;
54849;SDS011;47660;51.334;12.396;2022-12-07T16:12:16;0.57;;;0.57;;
54849;SDS011;47660;51.334;12.396;2022-12-07T16:17:07;1.02;;;1.00;;
54849;SDS011;47660;51.334;12.396;2022-12-07T16:19:36;2.80;;;1.27;;
54849;SDS011;47660;51.334;12.396;2022-12-07T16:22:04;2.58;;;0.88;;
54849;SDS011;47660;51.334;12.396;2022-12-07T16:24:35;0.57;;;0.57;;
54849;SDS011;47660;51.334;12.396;2022-12-07T16:27:01;1.45;;;0.85;;
54849;SDS011;47660;51.334;12.396;2022-12-07T16:29:28;0.68;;;0.68;;
54849;SDS011;47660;51.334;12.396;2022-12-07T16:31:56;3.00;;;0.80;;
54849;SDS011;47660;51.334;12.396;2022-12-07T16:34:21;1.50;;;0.68;;
54849;SDS011;47660;51.334;12.396;2022-12-07T16:36:47;4.07;;;0.98;;
54849;SDS011;47660;51.334;12.396;2022-12-07T16:39:15;1.90;;;0.82;;
54849;SDS011;47660;51.334;12.396;2022-12-07T16:41:40;0.88;;;0.85;;
54849;SDS011;47660;51.334;12.396;2022-12-07T16:44:07;2.85;;;1.55;;
54849;SDS011;47660;51.334;12.396;2022-12-07T16:46:38;1.20;;;1.10;;
54849;SDS011;47660;51.334;12.396;2022-12-07T16:49:04;2.95;;;1.02;;
54849;SDS011;47660;51.334;12.396;2022-12-07T16:51:30;2.35;;;1.42;;
54849;SDS011;47660;51.334;12.396;2022-12-07T16:53:56;2.45;;;1.10;;
54849;SDS011;47660;51.334;12.396;2022-12-07T16:56:21;3.92;;;1.20;;
54849;SDS011;47660;51.334;12.396;2022-12-07T16:58:47;1.58;;;0.93;;
54849;SDS011;47660;51.334;12.396;2022-12-07T17:01:18;1.33;;;1.05;;
54849;SDS011;47660;51.334;12.396;2022-12-07T17:03:47;1.35;;;1.00;;
54849;SDS011;47660;51.334;12.396;2022-12-07T17:06:14;1.80;;;0.82;;
54849;SDS011;47660;51.334;12.396;2022-12-07T17:08:43;1.58;;;0.90;;
54849;SDS011;47660;51.334;12.396;2022-12-07T17:11:13;1.20;;;0.82;;
54849;SDS011;47660;51.334;12.396;2022-12-07T17:13:40;3.15;;;1.52;;
54849;SDS011;47660;51.334;12.396;2022-12-07T17:16:24;1.25;;;0.82;;
54849;SDS011;47660;51.334;12.396;2022-12-07T17:18:50;2.40;;;1.33;;
54849;SDS011;47660;51.334;12.396;2022-12-07T17:21:16;1.13;;;1.02;;
54849;SDS011;47660;51.334;12.396;2022-12-07T17:23:41;3.55;;;1.80;;
54849;SDS011;47660;51.334;12.396;2022-12-07T17:26:14;1.45;;;0.75;;
54849;SDS011;47660;51.334;12.396;2022-12-07T17:28:41;5.80;;;1.42;;
54849;SDS011;47660;51.334;12.396;2022-12-07T17:31:07;1.65;;;1.05;;
54849;SDS011;47660;51.334;12.396;2022-12-07T17:33:34;2.75;;;1.27;;
54849;SDS011;47660;51.334;12.396;2022-12-07T17:36:01;0.88;;;0.88;;
54849;SDS011;47660;51.334;12.396;2022-12-07T17:38:33;1.98;;;1.42;;
54849;SDS011;47660;51.334;12.396;2022-12-07T17:40:59;0.75;;;0.75;;
54849;SDS011;47660;51.334;12.396;2022-12-07T17:43:24;0.82;;;0.73;;
54849;SDS011;47660;51.334;12.396;2022-12-07T17:45:50;1.92;;;1.38;;
54849;SDS011;47660;51.334;12.396;2022-12-07T17:48:17;0.70;;;0.57;;
54849;SDS011;47660;51.334;12.396;2022-12-07T17:50:45;0.95;;;0.88;;
54849;SDS011;47660;51.334;12.396;2022-12-07T17:53:30;0.40;;;0.40;;